sensor_id;sensor_type;location;lat;lon;timestamp;pressure;altitude;pressure_sealevel;temperature;humidity
58367;BME280;57745;42.524;12.052;2023-05-02T00:02:02;95663.47;;;19.32;58.23
58367;BME280;57745;42.524;12.052;2023-05-02T00:04:27;95665.00;;;19.22;58.48
58367;BME280;57745;42.524;12.052;2023-05-02T00:06:53;95662.50;;;19.13;58.54
58367;BME280;57745;42.524;12.052;2023-05-02T00:09:18;95660.50;;;19.19;58.16
58367;BME280;57745;42.524;12.052;2023-05-02T00:11:44;95660.50;;;19.08;58.76
58367;BME280;57745;42.524;12.052;2023-05-02T00:14:10;95649.25;;;19.06;58.63
58367;BME280;57745;42.524;12.052;2023-05-02T00:16:35;95657.25;;;19.21;58.18
58367;BME280;57745;42.524;12.052;2023-05-02T00:19:01;95641.50;;;19.27;58.03
58367;BME280;57745;42.524;12.052;2023-05-02T00:21:26;95645.25;;;19.24;58.14
58367;BME280;57745;42.524;12.052;2023-05-02T00:23:54;95636.00;;;19.21;58.29
58367;BME280;57745;42.524;12.052;2023-05-02T00:26:21;95637.50;;;19.22;58.17
58367;BME280;57745;42.524;12.052;2023-05-02T00:28:47;95633.25;;;19.21;58.14
58367;BME280;57745;42.524;12.052;2023-05-02T00:31:12;95632.75;;;19.23;58.04
58367;BME280;57745;42.524;12.052;2023-05-02T00:33:38;95633.28;;;19.16;58.02
58367;BME280;57745;42.524;12.052;2023-05-02T00:36:03;95629.53;;;19.08;58.42
58367;BME280;57745;42.524;12.052;2023-05-02T00:38:29;95632.00;;;19.17;58.14
58367;BME280;57745;42.524;12.052;2023-05-02T00:40:54;95623.50;;;19.26;57.72
58367;BME280;57745;42.524;12.052;2023-05-02T00:43:20;95615.75;;;19.19;58.02
58367;BME280;57745;42.524;12.052;2023-05-02T00:45:45;95613.25;;;19.21;57.71
58367;BME280;57745;42.524;12.052;2023-05-02T00:48:12;95617.00;;;19.23;57.74
58367;BME280;57745;42.524;12.052;2023-05-02T00:50:41;95607.00;;;19.31;57.47
58367;BME280;57745;42.524;12.052;2023-05-02T00:53:08;95607.75;;;19.21;58.06
58367;BME280;57745;42.524;12.052;2023-05-02T00:55:34;95606.75;;;19.35;57.34
58367;BME280;57745;42.524;12.052;2023-05-02T00:58:03;95606.53;;;19.27;57.78
58367;BME280;57745;42.524;12.052;2023-05-02T01:08:54;95609.28;;;19.16;57.63
58367;BME280;57745;42.524;12.052;2023-05-02T01:11:37;95596.78;;;19.15;57.65
58367;BME280;57745;42.524;12.052;2023-05-02T01:14:05;95595.03;;;19.18;57.88
58367;BME280;57745;42.524;12.052;2023-05-02T01:16:35;95597.53;;;19.16;57.64
58367;BME280;57745;42.524;12.052;2023-05-02T01:19:05;95600.53;;;19.23;57.58
58367;BME280;57745;42.524;12.052;2023-05-02T01:21:34;95587.53;;;19.18;57.50
58367;BME280;57745;42.524;12.052;2023-05-02T01:29:08;95594.03;;;19.04;57.84
58367;BME280;57745;42.524;12.052;2023-05-02T01:31:38;95593.53;;;19.06;57.69
58367;BME280;57745;42.524;12.052;2023-05-02T01:34:08;95584.28;;;19.20;57.40
58367;BME280;57745;42.524;12.052;2023-05-02T01:36:40;95587.81;;;19.15;57.34
58367;BME280;57745;42.524;12.052;2023-05-02T01:39:08;95582.53;;;19.17;57.29
58367;BME280;57745;42.524;12.052;2023-05-02T01:41:35;95585.56;;;19.02;57.71
58367;BME280;57745;42.524;12.052;2023-05-02T01:44:02;95576.84;;;18.98;57.76
58367;BME280;57745;42.524;12.052;2023-05-02T01:46:37;95584.06;;;19.01;57.71
58367;BME280;57745;42.524;12.052;2023-05-02T01:49:05;95587.53;;;19.24;57.16
58367;BME280;57745;42.524;12.052;2023-05-02T01:51:33;95590.28;;;19.24;57.17
58367;BME280;57745;42.524;12.052;2023-05-02T01:54:01;95585.28;;;19.22;56.98
58367;BME280;57745;42.524;12.052;2023-05-02T01:56:30;95589.75;;;19.31;56.81
58367;BME280;57745;42.524;12.052;2023-05-02T01:58:58;95587.53;;;19.24;56.84
58367;BME280;57745;42.524;12.052;2023-05-02T02:01:25;95585.75;;;19.32;56.58
58367;BME280;57745;42.524;12.052;2023-05-02T02:03:56;95570.03;;;19.27;56.77
58367;BME280;57745;42.524;12.052;2023-05-02T02:06:23;95572.56;;;19.14;57.20
58367;BME280;57745;42.524;12.052;2023-05-02T02:08:49;95579.28;;;19.18;56.69
58367;BME280;57745;42.524;12.052;2023-05-02T02:11:17;95576.50;;;19.29;56.83
58367;BME280;57745;42.524;12.052;2023-05-02T02:13:48;95577.06;;;19.06;57.68
58367;BME280;57745;42.524;12.052;2023-05-02T02:16:23;95573.78;;;19.24;56.81
58367;BME280;57745;42.524;12.052;2023-05-02T02:18:50;95572.03;;;19.21;56.96
58367;BME280;57745;42.524;12.052;2023-05-02T02:21:19;95573.00;;;19.34;56.58
58367;BME280;57745;42.524;12.052;2023-05-02T02:23:48;95575.28;;;19.25;56.91
58367;BME280;57745;42.524;12.052;2023-05-02T02:26:17;95571.06;;;19.13;57.10
58367;BME280;57745;42.524;12.052;2023-05-02T02:28:44;95572.56;;;19.14;57.18
58367;BME280;57745;42.524;12.052;2023-05-02T02:31:10;95574.78;;;19.21;57.02
58367;BME280;57745;42.524;12.052;2023-05-02T02:33:35;95574.06;;;19.09;57.28
58367;BME280;57745;42.524;12.052;2023-05-02T02:36:27;95572.34;;;19.00;57.46
58367;BME280;57745;42.524;12.052;2023-05-02T02:39:09;95581.78;;;19.22;56.72
58367;BME280;57745;42.524;12.052;2023-05-02T02:41:58;95577.84;;;19.00;57.20
58367;BME280;57745;42.524;12.052;2023-05-02T02:44:38;95584.31;;;19.09;57.08
58367;BME280;57745;42.524;12.052;2023-05-02T02:47:10;95578.84;;;18.86;57.67
58367;BME280;57745;42.524;12.052;2023-05-02T02:49:47;95577.31;;;19.08;57.53
58367;BME280;57745;42.524;12.052;2023-05-02T02:52:16;95572.81;;;19.16;57.25
58367;BME280;57745;42.524;12.052;2023-05-02T02:54:49;95580.09;;;19.02;57.41
58367;BME280;57745;42.524;12.052;2023-05-02T03:02:30;95578.81;;;19.09;57.26
58367;BME280;57745;42.524;12.052;2023-05-02T03:04:57;95576.31;;;19.11;57.53
58367;BME280;57745;42.524;12.052;2023-05-02T03:07:23;95578.06;;;19.08;57.28
58367;BME280;57745;42.524;12.052;2023-05-02T03:09:49;95568.09;;;18.94;57.35
58367;BME280;57745;42.524;12.052;2023-05-02T03:12:15;95572.09;;;18.98;56.79
58367;BME280;57745;42.524;12.052;2023-05-02T03:14:41;95568.34;;;18.96;56.94
58367;BME280;57745;42.524;12.052;2023-05-02T03:17:06;95566.84;;;19.00;56.64
58367;BME280;57745;42.524;12.052;2023-05-02T03:19:35;95563.63;;;18.85;57.25
58367;BME280;57745;42.524;12.052;2023-05-02T03:22:01;95570.59;;;18.97;56.94
58367;BME280;57745;42.524;12.052;2023-05-02T03:24:27;95568.81;;;19.11;56.21
58367;BME280;57745;42.524;12.052;2023-05-02T03:26:56;95569.81;;;19.14;56.37
58367;BME280;57745;42.524;12.052;2023-05-02T03:29:23;95571.84;;;18.96;56.30
58367;BME280;57745;42.524;12.052;2023-05-02T03:31:49;95560.56;;;19.06;56.09
58367;BME280;57745;42.524;12.052;2023-05-02T03:34:15;95561.81;;;19.05;56.35
58367;BME280;57745;42.524;12.052;2023-05-02T03:36:41;95570.34;;;18.95;56.68
58367;BME280;57745;42.524;12.052;2023-05-02T03:39:06;95569.84;;;18.86;56.73
58367;BME280;57745;42.524;12.052;2023-05-02T03:41:31;95572.13;;;18.76;56.91
58367;BME280;57745;42.524;12.052;2023-05-02T03:43:57;95569.09;;;18.96;56.59
58367;BME280;57745;42.524;12.052;2023-05-02T03:46:22;95564.84;;;18.95;56.40
58367;BME280;57745;42.524;12.052;2023-05-02T03:48:48;95568.09;;;18.99;56.22
58367;BME280;57745;42.524;12.052;2023-05-02T03:51:14;95569.34;;;18.87;56.55
58367;BME280;57745;42.524;12.052;2023-05-02T03:53:40;95575.84;;;18.95;56.18
58367;BME280;57745;42.524;12.052;2023-05-02T03:56:05;95581.81;;;18.94;56.22
58367;BME280;57745;42.524;12.052;2023-05-02T03:58:33;95587.09;;;18.81;56.59
58367;BME280;57745;42.524;12.052;2023-05-02T04:01:00;95578.81;;;18.97;56.26
58367;BME280;57745;42.524;12.052;2023-05-02T04:03:26;95575.56;;;19.05;56.09
58367;BME280;57745;42.524;12.052;2023-05-02T04:05:52;95584.34;;;18.86;56.54
58367;BME280;57745;42.524;12.052;2023-05-02T04:08:18;95578.81;;;18.97;55.91
58367;BME280;57745;42.524;12.052;2023-05-02T04:10:44;95591.56;;;18.95;55.96
58367;BME280;57745;42.524;12.052;2023-05-02T04:13:09;95589.28;;;19.05;55.84
58367;BME280;57745;42.524;12.052;2023-05-02T04:15:36;95602.06;;;18.85;56.44
58367;BME280;57745;42.524;12.052;2023-05-02T04:18:01;95600.31;;;18.93;55.95
58367;BME280;57745;42.524;12.052;2023-05-02T04:20:28;95604.31;;;18.92;55.99
58367;BME280;57745;42.524;12.052;2023-05-02T04:22:53;95616.28;;;18.95;55.79
58367;BME280;57745;42.524;12.052;2023-05-02T04:25:19;95615.56;;;18.83;56.02
58367;BME280;57745;42.524;12.052;2023-05-02T04:27:44;95610.81;;;18.95;55.75
58367;BME280;57745;42.524;12.052;2023-05-02T04:30:10;95615.56;;;18.78;56.01
58367;BME280;57745;42.524;12.052;2023-05-02T04:32:36;95607.84;;;18.65;56.53
58367;BME280;57745;42.524;12.052;2023-05-02T04:35:02;95612.81;;;18.72;56.59
58367;BME280;57745;42.524;12.052;2023-05-02T04:37:28;95612.03;;;18.94;55.95
58367;BME280;57745;42.524;12.052;2023-05-02T04:39:53;95621.53;;;18.71;56.62
58367;BME280;57745;42.524;12.052;2023-05-02T04:42:18;95617.06;;;18.84;56.32
58367;BME280;57745;42.524;12.052;2023-05-02T04:44:44;95615.81;;;18.74;56.73
58367;BME280;57745;42.524;12.052;2023-05-02T04:47:09;95616.81;;;18.65;56.95
58367;BME280;57745;42.524;12.052;2023-05-02T04:49:35;95624.03;;;18.96;56.27
58367;BME280;57745;42.524;12.052;2023-05-02T04:52:00;95627.31;;;18.78;56.54
58367;BME280;57745;42.524;12.052;2023-05-02T04:54:26;95627.06;;;18.76;56.71
58367;BME280;57745;42.524;12.052;2023-05-02T04:56:52;95627.56;;;18.75;56.80
58367;BME280;57745;42.524;12.052;2023-05-02T04:59:17;95625.28;;;18.84;56.50
58367;BME280;57745;42.524;12.052;2023-05-02T05:01:43;95629.81;;;18.76;56.80
58367;BME280;57745;42.524;12.052;2023-05-02T05:04:09;95633.03;;;18.63;57.09
58367;BME280;57745;42.524;12.052;2023-05-02T05:06:34;95635.53;;;19.00;56.11
58367;BME280;57745;42.524;12.052;2023-05-02T05:09:00;95638.28;;;18.84;56.45
58367;BME280;57745;42.524;12.052;2023-05-02T05:11:25;95640.03;;;18.92;56.38
58367;BME280;57745;42.524;12.052;2023-05-02T05:13:51;95649.53;;;18.86;56.59
58367;BME280;57745;42.524;12.052;2023-05-02T05:16:16;95651.25;;;19.11;55.80
58367;BME280;57745;42.524;12.052;2023-05-02T05:18:42;95643.78;;;18.89;56.72
58367;BME280;57745;42.524;12.052;2023-05-02T05:21:08;95651.25;;;18.72;57.21
58367;BME280;57745;42.524;12.052;2023-05-02T05:23:37;95650.00;;;18.95;56.80
58367;BME280;57745;42.524;12.052;2023-05-02T05:26:09;95653.03;;;19.03;56.66
58367;BME280;57745;42.524;12.052;2023-05-02T05:28:35;95657.50;;;19.06;56.25
58367;BME280;57745;42.524;12.052;2023-05-02T05:31:08;95653.00;;;19.14;56.14
58367;BME280;57745;42.524;12.052;2023-05-02T05:33:34;95652.78;;;19.01;56.77
58367;BME280;57745;42.524;12.052;2023-05-02T05:36:07;95653.75;;;19.09;56.76
58367;BME280;57745;42.524;12.052;2023-05-02T05:38:32;95654.50;;;19.15;56.41
58367;BME280;57745;42.524;12.052;2023-05-02T05:40:58;95645.00;;;18.94;57.27
58367;BME280;57745;42.524;12.052;2023-05-02T05:43:24;95652.50;;;19.05;57.08
58367;BME280;57745;42.524;12.052;2023-05-02T05:45:54;95651.25;;;18.94;57.41
58367;BME280;57745;42.524;12.052;2023-05-02T05:48:20;95643.25;;;19.08;56.79
58367;BME280;57745;42.524;12.052;2023-05-02T05:50:45;95653.03;;;19.03;56.84
58367;BME280;57745;42.524;12.052;2023-05-02T05:53:11;95663.28;;;19.02;56.64
58367;BME280;57745;42.524;12.052;2023-05-02T05:55:37;95664.78;;;19.04;57.06
58367;BME280;57745;42.524;12.052;2023-05-02T05:58:03;95655.03;;;19.02;56.99
58367;BME280;57745;42.524;12.052;2023-05-02T06:00:29;95665.75;;;19.12;56.81
58367;BME280;57745;42.524;12.052;2023-05-02T06:02:55;95664.50;;;19.07;57.03
58367;BME280;57745;42.524;12.052;2023-05-02T06:05:20;95663.72;;;19.29;56.33
58367;BME280;57745;42.524;12.052;2023-05-02T06:07:46;95665.03;;;18.89;57.42
58367;BME280;57745;42.524;12.052;2023-05-02T06:10:11;95671.00;;;19.15;56.92
58367;BME280;57745;42.524;12.052;2023-05-02T06:12:37;95666.75;;;19.14;56.82
58367;BME280;57745;42.524;12.052;2023-05-02T06:15:02;95670.25;;;19.04;57.25
58367;BME280;57745;42.524;12.052;2023-05-02T06:17:28;95667.25;;;19.13;56.99
58367;BME280;57745;42.524;12.052;2023-05-02T06:19:53;95670.25;;;19.04;57.03
58367;BME280;57745;42.524;12.052;2023-05-02T06:22:18;95678.25;;;19.13;57.17
58367;BME280;57745;42.524;12.052;2023-05-02T06:24:44;95674.72;;;19.18;56.69
58367;BME280;57745;42.524;12.052;2023-05-02T06:27:09;95670.00;;;18.90;58.22
58367;BME280;57745;42.524;12.052;2023-05-02T06:29:35;95675.00;;;18.97;58.10
58367;BME280;57745;42.524;12.052;2023-05-02T06:32:00;95669.50;;;18.97;58.72
58367;BME280;57745;42.524;12.052;2023-05-02T06:34:26;95684.47;;;18.63;60.20
58367;BME280;57745;42.524;12.052;2023-05-02T06:36:54;95681.50;;;18.83;59.52
58367;BME280;57745;42.524;12.052;2023-05-02T06:39:23;95688.00;;;18.91;59.20
58367;BME280;57745;42.524;12.052;2023-05-02T06:41:49;95681.75;;;18.96;59.21
58367;BME280;57745;42.524;12.052;2023-05-02T06:44:14;95686.25;;;19.11;59.12
58367;BME280;57745;42.524;12.052;2023-05-02T06:46:40;95684.00;;;19.15;58.80
58367;BME280;57745;42.524;12.052;2023-05-02T06:49:06;95693.47;;;19.25;58.42
58367;BME280;57745;42.524;12.052;2023-05-02T06:51:31;95695.22;;;19.06;58.48
58367;BME280;57745;42.524;12.052;2023-05-02T06:53:57;95691.97;;;19.18;58.50
58367;BME280;57745;42.524;12.052;2023-05-02T06:56:23;95694.75;;;19.13;58.74
58367;BME280;57745;42.524;12.052;2023-05-02T06:58:52;95693.97;;;19.23;58.30
58367;BME280;57745;42.524;12.052;2023-05-02T07:01:18;95690.47;;;19.17;58.61
58367;BME280;57745;42.524;12.052;2023-05-02T07:03:44;95693.25;;;19.12;58.77
58367;BME280;57745;42.524;12.052;2023-05-02T07:06:11;95690.75;;;19.14;58.80
58367;BME280;57745;42.524;12.052;2023-05-02T07:08:36;95698.72;;;18.95;59.55
58367;BME280;57745;42.524;12.052;2023-05-02T07:11:02;95695.97;;;19.17;58.91
58367;BME280;57745;42.524;12.052;2023-05-02T07:13:29;95701.97;;;18.99;59.52
58367;BME280;57745;42.524;12.052;2023-05-02T07:15:54;95702.25;;;19.01;59.40
58367;BME280;57745;42.524;12.052;2023-05-02T07:18:20;95706.22;;;19.17;58.91
58367;BME280;57745;42.524;12.052;2023-05-02T07:20:46;95699.25;;;19.16;59.10
58367;BME280;57745;42.524;12.052;2023-05-02T07:23:11;95704.22;;;19.23;58.59
58367;BME280;57745;42.524;12.052;2023-05-02T07:25:37;95706.97;;;19.28;58.76
58367;BME280;57745;42.524;12.052;2023-05-02T07:28:04;95717.22;;;19.06;59.56
58367;BME280;57745;42.524;12.052;2023-05-02T07:30:29;95720.72;;;19.00;60.07
58367;BME280;57745;42.524;12.052;2023-05-02T07:32:55;95717.69;;;19.04;59.63
58367;BME280;57745;42.524;12.052;2023-05-02T07:35:20;95717.44;;;19.30;59.22
58367;BME280;57745;42.524;12.052;2023-05-02T07:37:46;95721.72;;;19.09;59.63
58367;BME280;57745;42.524;12.052;2023-05-02T07:40:11;95712.97;;;19.27;59.57
58367;BME280;57745;42.524;12.052;2023-05-02T07:42:38;95722.47;;;19.09;59.98
58367;BME280;57745;42.524;12.052;2023-05-02T07:45:05;95721.22;;;19.10;59.81
58367;BME280;57745;42.524;12.052;2023-05-02T07:47:31;95720.72;;;19.23;59.41
58367;BME280;57745;42.524;12.052;2023-05-02T07:49:56;95723.47;;;19.12;60.01
58367;BME280;57745;42.524;12.052;2023-05-02T07:52:22;95729.22;;;18.91;60.58
58367;BME280;57745;42.524;12.052;2023-05-02T07:54:47;95729.69;;;19.18;59.72
58367;BME280;57745;42.524;12.052;2023-05-02T07:57:16;95735.97;;;19.24;59.55
58367;BME280;57745;42.524;12.052;2023-05-02T07:59:42;95745.47;;;19.12;60.03
58367;BME280;57745;42.524;12.052;2023-05-02T08:02:08;95747.72;;;19.24;59.55
58367;BME280;57745;42.524;12.052;2023-05-02T08:04:34;95749.69;;;19.18;59.96
58367;BME280;57745;42.524;12.052;2023-05-02T08:06:59;95745.19;;;18.87;60.65
58367;BME280;57745;42.524;12.052;2023-05-02T08:09:25;95751.69;;;18.95;60.42
58367;BME280;57745;42.524;12.052;2023-05-02T08:11:50;95740.97;;;19.14;60.00
58367;BME280;57745;42.524;12.052;2023-05-02T08:14:16;95752.19;;;19.11;60.84
58367;BME280;57745;42.524;12.052;2023-05-02T08:16:42;95750.22;;;19.22;60.34
58367;BME280;57745;42.524;12.052;2023-05-02T08:19:07;95754.69;;;19.09;60.21
58367;BME280;57745;42.524;12.052;2023-05-02T08:21:33;95762.66;;;18.95;60.48
58367;BME280;57745;42.524;12.052;2023-05-02T08:23:59;95758.47;;;19.28;59.86
58367;BME280;57745;42.524;12.052;2023-05-02T08:26:26;95765.69;;;19.09;59.88
58367;BME280;57745;42.524;12.052;2023-05-02T08:28:53;95772.44;;;19.08;60.00
58367;BME280;57745;42.524;12.052;2023-05-02T08:31:19;95765.47;;;19.40;58.81
58367;BME280;57745;42.524;12.052;2023-05-02T08:33:44;95773.19;;;19.14;59.77
58367;BME280;57745;42.524;12.052;2023-05-02T08:36:11;95772.44;;;19.35;59.17
58367;BME280;57745;42.524;12.052;2023-05-02T08:38:37;95774.66;;;18.98;60.48
58367;BME280;57745;42.524;12.052;2023-05-02T08:41:09;95778.69;;;19.25;59.49
58367;BME280;57745;42.524;12.052;2023-05-02T08:43:34;95764.47;;;19.37;58.97
58367;BME280;57745;42.524;12.052;2023-05-02T08:46:04;95774.94;;;19.45;58.29
58367;BME280;57745;42.524;12.052;2023-05-02T08:48:32;95780.47;;;19.39;58.72
58367;BME280;57745;42.524;12.052;2023-05-02T08:51:00;95779.94;;;19.68;57.55
58367;BME280;57745;42.524;12.052;2023-05-02T08:53:29;95777.19;;;19.68;57.96
58367;BME280;57745;42.524;12.052;2023-05-02T08:55:56;95770.94;;;19.79;56.87
58367;BME280;57745;42.524;12.052;2023-05-02T08:58:22;95778.97;;;19.77;56.96
58367;BME280;57745;42.524;12.052;2023-05-02T09:00:48;95780.72;;;19.75;57.44
58367;BME280;57745;42.524;12.052;2023-05-02T09:03:31;95779.50;;;19.53;58.31
58367;BME280;57745;42.524;12.052;2023-05-02T09:08:32;95791.97;;;19.77;57.22
58367;BME280;57745;42.524;12.052;2023-05-02T09:10:58;95791.66;;;19.91;56.82
58367;BME280;57745;42.524;12.052;2023-05-02T09:13:32;95790.72;;;19.72;57.83
58367;BME280;57745;42.524;12.052;2023-05-02T09:16:06;95803.47;;;19.75;57.21
58367;BME280;57745;42.524;12.052;2023-05-02T09:18:45;95796.19;;;19.89;56.47
58367;BME280;57745;42.524;12.052;2023-05-02T09:21:14;95796.72;;;19.70;57.57
58367;BME280;57745;42.524;12.052;2023-05-02T09:23:43;95818.47;;;19.57;58.42
58367;BME280;57745;42.524;12.052;2023-05-02T09:26:19;95809.47;;;19.73;57.46
58367;BME280;57745;42.524;12.052;2023-05-02T09:28:50;95806.47;;;19.88;56.71
58367;BME280;57745;42.524;12.052;2023-05-02T09:31:17;95814.44;;;19.97;56.00
58367;BME280;57745;42.524;12.052;2023-05-02T09:33:44;95806.44;;;19.99;56.04
58367;BME280;57745;42.524;12.052;2023-05-02T09:36:12;95811.47;;;19.90;56.32
58367;BME280;57745;42.524;12.052;2023-05-02T09:38:39;95817.69;;;19.96;56.57
58367;BME280;57745;42.524;12.052;2023-05-02T09:41:05;95811.94;;;19.99;56.54
58367;BME280;57745;42.524;12.052;2023-05-02T09:43:31;95809.94;;;19.94;56.28
58367;BME280;57745;42.524;12.052;2023-05-02T09:46:06;95818.66;;;20.04;56.19
58367;BME280;57745;42.524;12.052;2023-05-02T09:51:19;95815.41;;;20.11;56.71
58367;BME280;57745;42.524;12.052;2023-05-02T09:53:45;95813.91;;;20.10;56.36
58367;BME280;57745;42.524;12.052;2023-05-02T09:56:11;95816.94;;;20.01;56.46
58367;BME280;57745;42.524;12.052;2023-05-02T09:58:36;95819.19;;;19.97;56.63
58367;BME280;57745;42.524;12.052;2023-05-02T10:01:02;95821.94;;;20.02;56.71
58367;BME280;57745;42.524;12.052;2023-05-02T10:03:28;95807.94;;;20.00;56.70
58367;BME280;57745;42.524;12.052;2023-05-02T10:05:55;95814.94;;;20.01;56.28
58367;BME280;57745;42.524;12.052;2023-05-02T10:08:23;95817.41;;;20.05;56.45
58367;BME280;57745;42.524;12.052;2023-05-02T10:10:54;95809.94;;;20.00;56.53
58367;BME280;57745;42.524;12.052;2023-05-02T10:13:22;95814.22;;;19.90;57.07
58367;BME280;57745;42.524;12.052;2023-05-02T10:15:53;95810.66;;;20.06;56.28
58367;BME280;57745;42.524;12.052;2023-05-02T10:18:27;95814.22;;;19.90;56.99
58367;BME280;57745;42.524;12.052;2023-05-02T10:21:07;95816.47;;;19.86;57.23
58367;BME280;57745;42.524;12.052;2023-05-02T10:23:33;95809.19;;;19.99;56.62
58367;BME280;57745;42.524;12.052;2023-05-02T10:25:59;95801.94;;;20.02;56.43
58367;BME280;57745;42.524;12.052;2023-05-02T10:28:27;95817.94;;;19.92;56.98
58367;BME280;57745;42.524;12.052;2023-05-02T10:30:54;95819.19;;;19.97;56.10
58367;BME280;57745;42.524;12.052;2023-05-02T10:33:21;95815.91;;;20.04;55.93
58367;BME280;57745;42.524;12.052;2023-05-02T10:35:47;95818.41;;;20.13;55.56
58367;BME280;57745;42.524;12.052;2023-05-02T10:38:18;95818.91;;;20.12;55.43
58367;BME280;57745;42.524;12.052;2023-05-02T10:40:52;95814.41;;;20.08;55.75
58367;BME280;57745;42.524;12.052;2023-05-02T10:43:21;95811.97;;;19.83;56.06
58367;BME280;57745;42.524;12.052;2023-05-02T10:45:47;95809.66;;;20.09;55.96
58367;BME280;57745;42.524;12.052;2023-05-02T10:48:18;95816.91;;;20.06;55.74
58367;BME280;57745;42.524;12.052;2023-05-02T10:50:45;95814.41;;;20.08;55.40
58367;BME280;57745;42.524;12.052;2023-05-02T10:56:19;95805.66;;;20.10;55.50
58367;BME280;57745;42.524;12.052;2023-05-02T10:58:51;95807.91;;;20.06;55.50
58367;BME280;57745;42.524;12.052;2023-05-02T11:03:59;95811.66;;;20.14;54.37
58367;BME280;57745;42.524;12.052;2023-05-02T11:06:25;95809.16;;;20.05;54.98
58367;BME280;57745;42.524;12.052;2023-05-02T11:08:52;95808.19;;;19.97;55.30
58367;BME280;57745;42.524;12.052;2023-05-02T11:11:39;95812.13;;;20.18;54.28
58367;BME280;57745;42.524;12.052;2023-05-02T11:14:05;95803.91;;;20.13;54.34
58367;BME280;57745;42.524;12.052;2023-05-02T11:19:26;95811.19;;;19.99;55.20
58367;BME280;57745;42.524;12.052;2023-05-02T11:24:51;95816.66;;;20.10;54.77
58367;BME280;57745;42.524;12.052;2023-05-02T11:30:07;95813.19;;;19.98;55.19
58367;BME280;57745;42.524;12.052;2023-05-02T11:35:22;95814.91;;;20.13;54.80
58367;BME280;57745;42.524;12.052;2023-05-02T11:37:55;95805.41;;;20.14;54.36
58367;BME280;57745;42.524;12.052;2023-05-02T11:40:21;95808.66;;;20.12;54.74
58367;BME280;57745;42.524;12.052;2023-05-02T11:42:47;95815.13;;;20.20;54.08
58367;BME280;57745;42.524;12.052;2023-05-02T11:45:12;95807.38;;;20.24;53.93
58367;BME280;57745;42.524;12.052;2023-05-02T11:47:39;95804.63;;;20.24;53.88
58367;BME280;57745;42.524;12.052;2023-05-02T11:50:06;95801.91;;;20.07;54.73
58367;BME280;57745;42.524;12.052;2023-05-02T11:52:39;95802.41;;;20.12;54.31
58367;BME280;57745;42.524;12.052;2023-05-02T11:55:06;95797.88;;;20.25;54.00
58367;BME280;57745;42.524;12.052;2023-05-02T11:57:34;95806.13;;;20.25;53.92
58367;BME280;57745;42.524;12.052;2023-05-02T11:59:59;95801.94;;;19.96;54.74
58367;BME280;57745;42.524;12.052;2023-05-02T12:02:38;95794.56;;;20.32;53.56
58367;BME280;57745;42.524;12.052;2023-05-02T12:05:05;95796.38;;;20.24;54.17
58367;BME280;57745;42.524;12.052;2023-05-02T12:07:39;95802.84;;;20.32;53.38
58367;BME280;57745;42.524;12.052;2023-05-02T12:10:05;95807.09;;;20.33;53.35
58367;BME280;57745;42.524;12.052;2023-05-02T12:12:31;95802.63;;;20.19;53.81
58367;BME280;57745;42.524;12.052;2023-05-02T12:14:57;95805.13;;;20.17;53.54
58367;BME280;57745;42.524;12.052;2023-05-02T12:17:27;95813.38;;;20.23;53.56
58367;BME280;57745;42.524;12.052;2023-05-02T12:19:53;95807.63;;;20.26;53.42
58367;BME280;57745;42.524;12.052;2023-05-02T12:22:19;95814.63;;;20.27;53.43
58367;BME280;57745;42.524;12.052;2023-05-02T12:24:44;95812.84;;;20.30;53.44
58367;BME280;57745;42.524;12.052;2023-05-02T12:27:12;95818.13;;;20.22;53.59
58367;BME280;57745;42.524;12.052;2023-05-02T12:29:39;95810.38;;;20.21;53.55
58367;BME280;57745;42.524;12.052;2023-05-02T12:32:05;95820.38;;;20.24;53.48
58367;BME280;57745;42.524;12.052;2023-05-02T12:34:34;95823.38;;;20.37;53.19
58367;BME280;57745;42.524;12.052;2023-05-02T12:37:00;95821.16;;;20.24;53.71
58367;BME280;57745;42.524;12.052;2023-05-02T12:39:40;95805.09;;;20.28;53.36
58367;BME280;57745;42.524;12.052;2023-05-02T12:42:13;95811.38;;;20.23;53.49
58367;BME280;57745;42.524;12.052;2023-05-02T12:44:41;95800.63;;;20.25;53.78
58367;BME280;57745;42.524;12.052;2023-05-02T12:47:12;95802.63;;;20.19;53.73
58367;BME280;57745;42.524;12.052;2023-05-02T12:49:54;95804.13;;;20.20;53.43
58367;BME280;57745;42.524;12.052;2023-05-02T12:57:44;95794.56;;;20.43;52.67
58367;BME280;57745;42.524;12.052;2023-05-02T13:00:10;95789.81;;;20.44;52.67
58367;BME280;57745;42.524;12.052;2023-05-02T13:02:36;95797.09;;;20.36;53.00
58367;BME280;57745;42.524;12.052;2023-05-02T13:05:01;95792.59;;;20.38;52.54
58367;BME280;57745;42.524;12.052;2023-05-02T13:07:39;95791.28;;;20.51;52.29
58367;BME280;57745;42.524;12.052;2023-05-02T13:10:05;95795.06;;;20.42;52.38
58367;BME280;57745;42.524;12.052;2023-05-02T13:12:31;95796.81;;;20.51;52.12
58367;BME280;57745;42.524;12.052;2023-05-02T13:14:56;95799.09;;;20.35;52.44
58367;BME280;57745;42.524;12.052;2023-05-02T13:17:22;95788.84;;;20.36;52.32
58367;BME280;57745;42.524;12.052;2023-05-02T13:19:52;95795.84;;;20.37;52.13
58367;BME280;57745;42.524;12.052;2023-05-02T13:22:18;95794.81;;;20.34;52.23
58367;BME280;57745;42.524;12.052;2023-05-02T13:24:44;95783.81;;;20.29;52.19
58367;BME280;57745;42.524;12.052;2023-05-02T13:27:10;95792.84;;;20.24;52.50
58367;BME280;57745;42.524;12.052;2023-05-02T13:29:36;95796.63;;;20.26;52.24
58367;BME280;57745;42.524;12.052;2023-05-02T13:32:01;95794.06;;;20.34;52.24
58367;BME280;57745;42.524;12.052;2023-05-02T13:34:27;95784.34;;;20.22;52.02
58367;BME280;57745;42.524;12.052;2023-05-02T13:36:53;95784.25;;;20.55;51.54
58367;BME280;57745;42.524;12.052;2023-05-02T13:39:19;95786.28;;;20.49;51.56